Latest Weather Observations for Cloncurry

IDQ60801

Issued at 9:35 pm EST Tuesday 21 October 2014 (issued every 30 minutes, with the page automatically refreshed every 10 minutes)

About weather observations | Map of weather stations | Latest weather observations for QLD | Other Formats
Station Details ID: 029141 Name: CLONCURRY AIRPORT Lat: -20.67 Lon: 140.50 Height: 186.0 m
Data from the previous 72 hours. | See also: Recent months at Cloncurry
Date/Time
EST
Temp
°C
App
Temp
°C
Dew
Point
Rel
Hum
%
Delta-T
°C
Wind Press
QNH
hPa
Press
MSL
hPa
Rain
since 9 am
mm
Dir
 
Spd
km/h
Gust
km/h
Spd
kts
Gust
kts
21/09:30pm 29.2 24.9 0.8 16 13.8 SE 13 15 7 8 1017.3 1016.2 0.0
21/09:00pm 29.5 25.1 0.2 15 14.1 SE 13 17 7 9 1016.9 1015.7 0.0
21/08:30pm 30.3 25.5 -0.1 14 14.6 SE 15 17 8 9 1016.6 1015.4 0.0
21/08:00pm 30.1 26.2 -1.3 13 14.8 ESE 9 9 5 5 1016.3 1015.1 0.0
21/07:30pm 31.2 26.5 -1.5 12 15.5 ESE 13 17 7 9 1016.0 1014.8 0.0
21/07:00pm 32.3 26.8 -1.9 11 16.2 ESE 17 20 9 11 1015.7 1014.5 0.0
21/06:30pm 33.5 27.0 -2.3 10 17.0 E 22 33 12 18 1015.3 1014.1 0.0
21/06:00pm 34.3 27.7 -3.1 9 17.6 E 22 32 12 17 1015.0 1013.8 0.0
21/05:30pm 34.6 28.6 -1.4 10 17.5 E 20 30 11 16 1014.7 1013.5 0.0
21/05:00pm 35.1 30.1 1.5 12 17.1 E 17 28 9 15 1014.6 1013.4 0.0
21/04:30pm 35.1 28.8 1.5 12 17.1 E 24 35 13 19 1014.5 1013.3 0.0
21/04:00pm 34.5 28.9 1.0 12 16.9 SE 20 26 11 14 1014.8 1013.6 0.0
21/03:30pm 35.4 28.7 1.7 12 17.3 SE 26 33 14 18 1014.9 1013.7 0.0
21/03:00pm 34.7 29.5 2.3 13 16.7 SE 19 32 10 17 1015.2 1014.0 0.0
21/02:30pm 34.6 31.0 3.2 14 16.4 SE 11 24 6 13 1015.6 1014.4 0.0
21/02:00pm 33.3 28.6 3.2 15 15.6 ESE 17 28 9 15 1016.2 1015.0 0.0
21/01:30pm 32.9 29.7 2.9 15 15.5 ESE 9 17 5 9 1016.8 1015.6 0.0
21/01:00pm 33.4 28.3 3.3 15 15.6 SSE 19 28 10 15 1017.4 1016.3 0.0
21/12:30pm 32.1 27.7 4.8 18 14.4 NE 17 28 9 15 1018.1 1017.0 0.0
21/12:00pm 31.3 26.4 4.2 18 14.1 ENE 19 32 10 17 1018.8 1017.7 0.0
21/11:30am 31.4 28.3 7.1 22 13.3 E 13 30 7 16 1019.5 1018.3 0.0
21/11:00am 30.1 26.1 6.7 23 12.6 ENE 17 28 9 15 1020.0 1018.8 0.0
21/10:30am 29.3 25.8 7.2 25 12.0 NE 15 33 8 18 1020.3 1019.1 0.0
21/10:00am 28.6 24.7 7.2 26 11.5 NE 17 24 9 13 1020.7 1019.5 0.0
21/09:30am 27.5 23.2 6.8 27 11.0 NNE 19 28 10 15 1020.8 1019.6 0.0
21/09:00am 26.7 23.0 6.2 27 10.7 NNE 15 22 8 12 1020.9 1019.7 0.0
21/08:30am 26.7 22.1 6.7 28 10.6 NE 20 30 11 16 1020.7 1019.5 0.0
21/08:00am 26.1 21.4 5.1 26 10.8 ENE 19 28 10 15 1020.3 1019.1 0.0
21/07:30am 25.1 20.4 3.1 24 10.8 E 17 22 9 12 1019.8 1018.6 0.0
21/07:00am 24.0 20.5 3.3 26 10.1 ESE 11 15 6 8 1019.3 1018.1 0.0
21/06:30am 22.5 19.6 2.6 27 9.5 ESE 7 9 4 5 1018.6 1017.5 0.0
21/06:00am 22.5 18.9 3.1 28 9.4 E 11 17 6 9 1018.1 1017.0 0.0
21/05:30am 23.1 19.1 3.1 27 9.7 E 13 17 7 9 1017.5 1016.4 0.0
21/05:00am 24.1 19.1 3.4 26 10.2 E 19 24 10 13 1016.9 1015.7 0.0
21/04:30am 24.1 19.1 3.4 26 10.2 E 19 24 10 13 1016.6 1015.4 0.0
21/04:00am 23.7 19.4 3.1 26 10.0 E 15 17 8 9 1016.4 1015.2 0.0
21/03:30am 24.2 19.5 2.9 25 10.4 E 17 20 9 11 1016.3 1015.1 0.0
21/03:00am 24.7 19.6 2.8 24 10.7 E 19 22 10 12 1016.3 1015.1 0.0
21/02:30am 25.4 20.1 2.8 23 11.1 E 20 28 11 15 1016.3 1015.1 0.0
21/02:00am 25.8 20.0 2.5 22 11.4 E 22 30 12 16 1016.5 1015.3 0.0
21/01:30am 26.3 20.4 1.6 20 11.9 E 22 28 12 15 1016.7 1015.5 0.0
21/01:00am 26.4 20.8 0.9 19 12.1 ESE 20 24 11 13 1016.9 1015.7 0.0
21/12:30am 26.3 21.1 0.1 18 12.3 ESE 17 20 9 11 1017.0 1015.8 0.0
21/12:00am 26.4 21.5 -0.6 17 12.5 ESE 15 19 8 10 1017.1 1016.0 0.0
 
Date/Time
EST
Temp
°C
App
Temp
°C
Dew
Point
Rel
Hum
%
Delta-T
°C
Wind Press
QNH
hPa
Press
MSL
hPa
Rain
since 9 am
mm
Dir
 
Spd
km/h
Gust
km/h
Spd
kts
Gust
kts
20/11:30pm 27.3 22.5 0.1 17 12.9 SE 15 19 8 10 1017.4 1016.3 0.0
20/11:00pm 26.8 22.3 -0.3 17 12.7 ESE 13 17 7 9 1017.5 1016.4 0.0
20/10:30pm 27.9 23.0 -0.2 16 13.3 ESE 15 19 8 10 1017.5 1016.4 0.0
20/10:00pm 28.5 23.7 0.3 16 13.5 ESE 15 19 8 10 1017.3 1016.2 0.0
20/09:30pm 28.8 24.4 0.5 16 13.6 ESE 13 17 7 9 1017.2 1016.1 0.0
20/09:00pm 28.6 24.8 -0.5 15 13.7 SE 9 13 5 7 1016.9 1015.7 0.0
20/08:30pm 30.0 25.5 -0.4 14 14.5 SE 13 15 7 8 1016.6 1015.4 0.0
20/08:00pm 30.3 25.8 -0.1 14 14.6 ESE 13 15 7 8 1016.3 1015.1 0.0
20/07:30pm 31.5 25.7 -0.2 13 15.4 E 20 24 11 13 1015.9 1014.7 0.0
20/07:00pm 32.2 25.9 -0.8 12 15.9 E 22 28 12 15 1015.5 1014.3 0.0
20/06:30pm 33.1 26.7 1.0 13 16.0 ESE 24 32 13 17 1015.0 1013.8 0.0
20/06:00pm 33.8 27.5 1.6 13 16.3 ESE 24 32 13 17 1014.7 1013.5 0.0
20/05:30pm 34.2 27.6 1.9 13 16.5 ESE 26 39 14 21 1014.5 1013.3 0.0
20/05:00pm 34.4 28.2 2.0 13 16.6 SE 24 30 13 16 1014.5 1013.3 0.0
20/04:30pm 34.7 28.1 2.3 13 16.7 SE 26 43 14 23 1014.4 1013.2 0.0
20/04:00pm 34.7 29.1 1.1 12 17.0 SE 20 37 11 20 1014.4 1013.2 0.0
20/03:30pm 34.4 29.1 2.0 13 16.6 SE 19 33 10 18 1014.5 1013.3 0.0
20/03:00pm 34.2 28.9 2.9 14 16.2 E 20 30 11 16 1015.0 1013.8 0.0
20/02:30pm 33.5 27.5 3.3 15 15.7 ESE 24 37 13 20 1015.4 1014.2 0.0
20/02:00pm 34.1 27.8 3.8 15 15.9 ESE 26 35 14 19 1015.9 1014.7 0.0
20/01:30pm 32.7 28.4 5.3 18 14.7 ESE 17 20 9 11 1016.5 1015.3 0.0
20/01:00pm 32.7 27.4 6.8 20 14.2 E 24 33 13 18 1017.3 1016.2 0.0
20/12:30pm 31.7 27.9 7.4 22 13.4 NE 17 28 9 15 1017.9 1016.8 0.0
20/12:00pm 31.6 28.5 7.3 22 13.3 E 13 32 7 17 1018.7 1017.6 0.0
20/11:30am 31.1 26.1 8.2 24 12.7 E 24 37 13 20 1019.4 1018.2 0.0
20/11:00am 30.1 27.3 8.5 26 12.0 E 13 20 7 11 1019.8 1018.6 0.0
20/10:30am 29.3 25.1 8.4 27 11.6 E 20 32 11 17 1020.2 1019.0 0.0
20/10:00am 28.7 24.5 8.4 28 11.2 E 20 30 11 16 1020.7 1019.5 0.0
20/09:30am 27.9 23.6 7.7 28 11.0 ENE 20 32 11 17 1021.2 1020.0 0.0
20/09:00am 27.3 22.5 7.2 28 10.7 ENE 22 35 12 19 1021.2 1020.0 0.0
20/08:30am 26.8 22.6 7.3 29 10.4 NE 19 30 10 16 1021.1 1019.9 0.0
20/08:00am 25.5 20.6 5.1 27 10.4 E 20 28 11 15 1020.7 1019.5 0.0
20/07:30am 24.8 20.1 5.1 28 10.0 E 19 24 10 13 1020.2 1019.0 0.0
20/07:00am 23.9 19.9 4.8 29 9.6 E 15 20 8 11 1019.7 1018.5 0.0
20/06:30am 22.8 18.7 4.3 30 9.2 E 15 19 8 10 1019.2 1018.0 0.0
20/06:00am 22.7 18.2 4.2 30 9.1 E 17 20 9 11 1018.6 1017.5 0.0
20/05:30am 23.2 18.3 4.2 29 9.4 E 19 22 10 12 1018.3 1017.2 0.0
20/05:00am 23.8 18.7 4.2 28 9.7 E 20 28 11 15 1018.0 1016.9 0.0
20/04:30am 24.5 19.1 4.3 27 10.1 ESE 22 33 12 18 1017.7 1016.6 0.0
20/04:00am 24.5 19.4 4.3 27 10.1 E 20 24 11 13 1017.3 1016.2 0.0
20/03:30am 25.0 19.5 4.2 26 10.4 ESE 22 30 12 16 1017.1 1016.0 0.0
20/03:00am 25.2 19.8 4.3 26 10.5 ESE 22 28 12 15 1017.1 1016.0 0.0
20/02:30am 25.5 20.0 4.0 25 10.8 ESE 22 26 12 14 1017.1 1016.0 0.0
20/02:00am 26.0 20.6 4.5 25 10.9 ESE 22 32 12 17 1017.3 1016.2 0.0
20/01:30am 26.3 21.2 4.1 24 11.2 ESE 20 26 11 14 1017.3 1016.2 0.0
20/01:00am 26.8 21.8 4.6 24 11.3 ESE 20 26 11 14 1017.4 1016.3 0.0
20/12:30am 27.3 21.9 4.4 23 11.7 ESE 22 30 12 16 1017.6 1016.5 0.0
20/12:00am 27.7 22.2 4.1 22 12.0 ESE 22 28 12 15 1017.9 1016.8 0.0
 
Date/Time
EST
Temp
°C
App
Temp
°C
Dew
Point
Rel
Hum
%
Delta-T
°C
Wind Press
QNH
hPa
Press
MSL
hPa
Rain
since 9 am
mm
Dir
 
Spd
km/h
Gust
km/h
Spd
kts
Gust
kts
19/11:30pm 27.9 23.0 4.2 22 12.1 SE 19 24 10 13 1018.0 1016.9 0.0
19/11:00pm 28.3 23.4 3.9 21 12.4 SE 19 24 10 13 1018.1 1017.0 0.0
19/10:30pm 28.7 23.7 3.5 20 12.8 ESE 19 24 10 13 1018.2 1017.1 0.0
19/10:00pm 29.2 24.1 3.2 19 13.1 SE 19 24 10 13 1018.1 1017.0 0.0
19/09:30pm 29.3 24.5 2.5 18 13.4 SE 17 22 9 12 1017.7 1016.6 0.0
19/09:00pm 29.5 24.6 1.9 17 13.7 SE 17 20 9 11 1017.4 1016.3 0.0
19/08:30pm 30.3 25.4 1.7 16 14.2 ESE 17 20 9 11 1017.0 1015.8 0.0
19/08:00pm 30.7 25.3 1.1 15 14.6 ESE 19 22 10 12 1016.5 1015.3 0.0
19/07:30pm 31.3 26.2 0.6 14 15.1 ESE 17 20 9 11 1016.2 1015.0 0.0
19/07:00pm 32.1 26.0 0.2 13 15.6 ESE 22 30 12 16 1015.7 1014.5 0.0
19/06:30pm 32.9 26.5 0.9 13 16.0 E 24 32 13 17 1015.3 1014.1 0.0
19/06:00pm 33.7 26.8 0.4 12 16.5 ESE 26 35 14 19 1014.8 1013.6 0.0
19/05:30pm 34.1 28.0 0.7 12 16.7 E 22 33 12 18 1014.4 1013.2 0.0
19/05:00pm 34.4 28.4 0.9 12 16.9 SE 22 33 12 18 1014.4 1013.2 0.0
19/04:35pm 35.1 28.0 1.5 12 17.1 E 28 46 15 25 1014.3 1013.1 0.0
19/04:30pm 34.6 29.0 1.1 12 16.9 SE 20 30 11 16 1014.3 1013.1 0.0
19/04:00pm 34.3 28.1 1.9 13 16.6 E 24 35 13 19 1014.4 1013.2 0.0
19/03:55pm 34.9 28.0 2.4 13 16.8 E 28 46 15 25 1014.4 1013.2 0.0
19/03:30pm 34.2 28.7 1.9 13 16.5 E 20 30 11 16 1014.6 1013.4 0.0
19/03:00pm 34.4 27.6 3.1 14 16.3 SE 28 35 15 19 1014.9 1013.7 0.0
19/02:30pm 32.9 27.2 2.9 15 15.5 E 22 35 12 19 1015.5 1014.3 0.0
19/02:22pm 34.2 27.5 3.9 15 16.0 SE 28 56 15 30 1015.5 1014.3 0.0
19/02:00pm 33.0 26.9 2.9 15 15.5 ESE 24 35 13 19 1016.0 1014.8 0.0
19/01:30pm 32.3 26.7 3.3 16 15.0 E 22 33 12 18 1016.4 1015.2 0.0
19/01:00pm 32.1 26.4 3.1 16 14.9 ESE 22 33 12 18 1017.1 1016.0 0.0
19/12:30pm 32.4 27.6 5.8 19 14.3 ENE 20 24 11 13 1017.8 1016.7 0.0
19/12:00pm 31.1 27.5 4.8 19 13.8 ESE 13 20 7 11 1018.5 1017.4 0.0
19/11:30am 30.8 26.1 6.0 21 13.3 E 20 33 11 18 1019.2 1018.0 0.0
19/11:00am 30.5 26.1 6.4 22 12.9 NE 19 30 10 16 1019.8 1018.6 0.0
19/10:30am 30.3 26.2 6.2 22 12.9 NE 17 28 9 15 1020.2 1019.0 0.0
19/10:00am 28.8 24.4 5.0 22 12.4 NE 17 32 9 17 1020.7 1019.5 0.0
19/09:30am 27.8 22.5 4.8 23 11.9 NNE 22 32 12 17 1021.0 1019.8 0.0
19/09:00am 27.2 21.1 4.9 24 11.4 NNE 26 32 14 17 1021.1 1019.9 0.0
19/08:30am 26.7 21.3 4.5 24 11.3 NE 22 32 12 17 1021.0 1019.8 0.0
19/08:00am 25.9 20.4 3.8 24 11.0 NE 22 32 12 17 1020.6 1019.4 0.0
19/07:30am 24.7 20.2 2.2 23 10.9 NE 15 20 8 11 1020.3 1019.1 0.0
19/07:00am 23.4 20.3 1.1 23 10.4 E 7 11 4 6 1019.7 1018.5 0.0
19/06:30am 21.8 18.1 -0.2 23 9.9 ENE 9 13 5 7 1018.8 1017.7 0.0
19/06:00am 21.6 17.5 -0.4 23 9.8 E 11 17 6 9 1018.2 1017.1 0.0
19/05:30am 22.3 17.4 -0.4 22 10.2 ENE 15 20 8 11 1017.6 1016.5 0.0
19/05:00am 22.6 17.3 -0.8 21 10.5 E 17 20 9 11 1017.1 1016.0 0.0
19/04:30am 23.0 17.7 -0.5 21 10.6 E 17 20 9 11 1016.7 1015.5 0.0
19/04:00am 23.7 18.0 -0.6 20 11.0 E 19 22 10 12 1016.3 1015.1 0.0
19/03:30am 24.3 18.4 -0.8 19 11.4 E 20 26 11 14 1016.0 1014.8 0.0
19/03:00am 24.7 18.9 -0.4 19 11.5 E 20 24 11 13 1015.9 1014.7 0.0
19/02:30am 25.0 19.3 -0.9 18 11.8 E 19 22 10 12 1015.9 1014.7 0.0
19/02:00am 25.6 19.8 -1.2 17 12.2 E 19 24 10 13 1015.8 1014.6 0.0
19/01:30am 26.1 20.1 -1.7 16 12.6 ESE 20 26 11 14 1016.0 1014.8 0.0
19/01:00am 26.5 20.4 -2.2 15 12.9 ESE 20 24 11 13 1016.1 1014.9 0.0
19/12:30am 27.2 21.2 -1.7 15 13.2 ESE 20 24 11 13 1016.3 1015.1 0.0
19/12:00am 27.1 21.9 -2.7 14 13.4 ESE 15 20 8 11 1016.3 1015.1 0.0
 
Date/Time
EST
Temp
°C
App
Temp
°C
Dew
Point
Rel
Hum
%
Delta-T
°C
Wind Press
QNH
hPa
Press
MSL
hPa
Rain
since 9 am
mm
Dir
 
Spd
km/h
Gust
km/h
Spd
kts
Gust
kts
18/11:30pm 28.4 22.3 -2.6 13 14.1 ESE 20 30 11 16 1016.5 1015.3 0.0
18/11:00pm 28.9 23.6 -3.3 12 14.5 SE 15 20 8 11 1016.6 1015.4 0.0
18/10:30pm 28.7 23.7 -4.6 11 14.6 SE 13 17 7 9 1016.6 1015.4 0.0
18/10:00pm 28.8 23.8 -4.6 11 14.7 SE 13 17 7 9 1016.5 1015.3 0.0

Other Formats:

Comma delimited format used in spreadsheet applications
http://www.bom.gov.au/fwo/IDQ60801/IDQ60801.94335.axf

JavaScript Object Notation format (JSON) in row-major order
http://www.bom.gov.au/fwo/IDQ60801/IDQ60801.94335.json